Main page
METAR-TAF:

METAR-TAF

Airports :

Lanzhou Zhongchuan International Airport

Lanzhou, China

latitude: 36-02N, longitude: 103-52E, elevation: 1518 m

Current weather observation

The report was made 1 hour and 17 minutes ago, at 22:00 UTC
Wind 4 kt from the North/Northwest
Temperature 17°C
Humidity 77%
Pressure 1014 hPa
Visibility 10 km or more
no clouds below 1500 m and no cumulonimbus

METAR: ZLLL 172200Z 34002MPS CAVOK 17/13 Q1014 NOSIG

Time: 07:17 (23:17 UTC)

Forecast

The report was made 8 hours and 16 minutes ago, at 15:01 UTC
Forecast valid from 17 at 18 UTC to 18 at 18 UTC
Wind 6 kt from the North/Northwest
Visibility: 6000 m
Temporary
from 18 at 07 UTC to 18 at 11 UTC
Wind 16 kt from the North
Scattered clouds at a height of 2300 ft
Few clouds at a height of 3300 ft, Cumulonimbus.

TAF: ZLLL 171501Z 1718/1818 34003MPS 6000 NSC TX34/1808Z TN17/1723Z TEMPO 1807/1811 36008MPS SCT023 FEW033CB

Weather observations and forecasts of more than 4000 airports (METAR and TAF reports).

The available stations are represented by yellow and red dots on the map.

Hover mouse over dot to see the name of the station.

Then click to see weather observations and forecasts.

To change the map : click on the green buttons with a black cross to zoom in, on the green button with a dash to zoom out, or on the green arrows for adjacent maps.


METAR-TAF: